Home > Products > Valid Products > MTR

000
SAUS43 KABR 300957
MTR8D3
METAR K8D3 300956Z AUTO 15013G19KT 08/07 A2996 RMK AO1 SLP144
T00780067





000
SAUS43 KABR 300857
MTR8D3
METAR K8D3 300856Z AUTO 14010KT 08/07 A2997 RMK AO1 SLP149 T00830072
58012





000
SAUS43 KABR 300757
MTR8D3
METAR K8D3 300756Z AUTO 15011KT 08/07 A2999 RMK AO1 SLP156 T00830072





000
SAUS43 KABR 300657
MTR8D3
METAR K8D3 300656Z AUTO 14009KT 09/08 A3000 RMK AO1 SLP159 T00890078





000
SAUS43 KABR 300557
MTR8D3
METAR K8D3 300556Z AUTO 14009KT 09/08 A3001 RMK AO1 SLP164 T00940078
10133 20094 401720094 58009





000
SAUS43 KABR 300458
MTR8D3
METAR K8D3 300456Z AUTO 14008KT 10/08 A3003 RMK AO1 SLP168 T01000083





000
SAUS43 KABR 300358
MTR8D3
METAR K8D3 300356Z AUTO 13008KT 11/08 A3003 RMK AO1 SLP171 T01060083





000
SAUS43 KABR 300257
MTR8D3
METAR K8D3 300256Z AUTO 15007KT 12/09 A3004 RMK AO1 SLP173 T01170089
58007





000
SAUS43 KABR 300157
MTR8D3
METAR K8D3 300156Z AUTO 13013KT 12/09 A3005 RMK AO1 SLP176 T01220089





000
SAUS43 KABR 300057
MTR8D3
METAR K8D3 300056Z AUTO 13007KT 12/09 A3005 RMK AO1 SLP178 T01170094





000
SAUS43 KABR 292357
MTR8D3
METAR K8D3 292356Z AUTO 14008KT 13/10 A3006 RMK AO1 SLP179 T01330100
10172 20128 56009





000
SAUS43 KABR 292257
MTR8D3
METAR K8D3 292256Z AUTO 12009KT 15/10 A3006 RMK AO1 SLP178 T01500100





000
SAUS43 KABR 292157
MTR8D3
METAR K8D3 292156Z AUTO 12008KT 17/10 A3007 RMK AO1 SLP178 T01670100





000
SAUS43 KABR 292057
MTR8D3
METAR K8D3 292056Z AUTO 12007KT 16/10 A3009 RMK AO1 SLP187 T01610100
56019





000
SAUS43 KABR 291958
MTR8D3
METAR K8D3 291956Z AUTO 12007KT 15/10 A3010 RMK AO1 SLP190 T01500100





000
SAUS43 KABR 291857
MTR8D3
METAR K8D3 291856Z AUTO 08008KT 14/09 A3013 RMK AO1 SLP200 T01390094





000
SAUS43 KABR 291757
MTR8D3
METAR K8D3 291756Z AUTO 09007KT 13/09 A3015 RMK AO1 SLP207 T01280094
10133 20106 58005





000
SAUS43 KABR 291657
MTR8D3
METAR K8D3 291656Z AUTO 08010KT 13/09 A3016 RMK AO1 SLP210 T01280094





000
SAUS43 KABR 291558
MTR8D3
METAR K8D3 291556Z AUTO 04010KT 11/10 A3016 RMK AO1 SLP213 T01110100





000
SAUS43 KABR 291457
MTR8D3
METAR K8D3 291456Z AUTO 05010KT 11/09 A3016 RMK AO1 SLP213 T01110094
50003





000
SAUS43 KABR 291357
MTR8D3
METAR K8D3 291356Z AUTO 03009KT 11/10 A3017 RMK AO1 SLP214 T01060100





000
SAUS43 KABR 291257
MTR8D3
METAR K8D3 291256Z AUTO 03007KT 11/10 A3016 RMK AO1 SLP213 T01060100





000
SAUS43 KABR 291158
MTR8D3
METAR K8D3 291156Z AUTO 03007KT 11/10 A3015 RMK AO1 SLP209 T01110100
10128 20111 53002





000
SAUS43 KABR 291057
MTR8D3
METAR K8D3 291056Z AUTO 03011KT 11/11 A3015 RMK AO1 SLP204 T01110106





000
SAUS43 KABR 290957
MTR8D3
METAR K8D3 290956Z AUTO 03010KT 12/11 A3015 RMK AO1 SLP201 T01170106





000
SAUS43 KABR 290857
MTR8D3
METAR K8D3 290856Z AUTO 03013KT 12/11 A3015 RMK AO1 SLP199 T01170106
58001





000
SAUS43 KABR 290757
MTR8D3
METAR K8D3 290756Z AUTO 02014G18KT 12/11 A3015 RMK AO1 SLP200
T01220106





000
SAUS43 KABR 290657
MTR8D3
METAR K8D3 290656Z AUTO 03011G17KT 12/11 A3015 RMK AO1 SLP201
T01220106





000
SAUS43 KABR 290557
MTR8D3
METAR K8D3 290556Z AUTO 03012KT 13/11 A3015 RMK AO1 SLP200 T01280106
10156 20122 402560122 51005





000
SAUS43 KABR 290457
MTR8D3
METAR K8D3 290456Z AUTO 02012G19KT 13/11 A3015 RMK AO1 SLP200
T01280106





000
SAUS43 KABR 290358
MTR8D3
METAR K8D3 290356Z AUTO 01011G19KT 13/11 A3014 RMK AO1 SLP199
T01330111





000
SAUS43 KABR 290257
MTR8D3
METAR K8D3 290256Z AUTO 02013G18KT 13/11 A3014 RMK AO1 SLP199
T01330111 51013





000
SAUS43 KABR 290157
MTR8D3
METAR K8D3 290156Z AUTO 02011G18KT 14/12 A3013 RMK AO1 SLP197
T01440117





000
SAUS43 KABR 290057
MTR8D3
METAR K8D3 290056Z AUTO 02014G21KT 15/12 A3012 RMK AO1 SLP196
T01500122





000
SAUS43 KABR 282357
MTR8D3
METAR K8D3 282356Z AUTO 01015G21KT 16/12 A3010 RMK AO1 SLP189
T01560122 10256 20156 53014





000
SAUS43 KABR 282257
MTR8D3
METAR K8D3 282256Z AUTO 02015G22KT 18/13 A3008 RMK AO1 SLP179
T01830128





000
SAUS43 KABR 282158
MTR8D3
METAR K8D3 282156Z AUTO 02015G20KT 23/14 A3006 RMK AO1 SLP168
T02280139





000
SAUS43 KABR 282057
MTR8D3
METAR K8D3 282056Z AUTO 36012KT 24/14 A3006 RMK AO1 SLP167 T02390139
55004





000
SAUS43 KABR 281957
MTR8D3
METAR K8D3 281956Z AUTO 02010G17KT 24/14 A3006 RMK AO1 SLP166
T02440144





000
SAUS43 KABR 281857
MTR8D3
METAR K8D3 281856Z AUTO 03007KT 26/16 A3005 RMK AO1 SLP164 T02560156





000
SAUS43 KABR 281757
MTR8D3
METAR K8D3 281756Z AUTO VRB03KT 25/15 A3007 RMK AO1 SLP168 T02500150
10250 20128 58003





000
SAUS43 KABR 281658
MTR8D3
METAR K8D3 281656Z AUTO 35006KT 24/16 A3008 RMK AO1 SLP171 T02390156





000
SAUS43 KABR 281557
MTR8D3
METAR K8D3 281556Z AUTO 35006KT 21/16 A3008 RMK AO1 SLP174 T02110156





000
SAUS43 KABR 281457
MTR8D3
METAR K8D3 281456Z AUTO 36005KT 19/15 A3008 RMK AO1 SLP174 T01890150
51013





000
SAUS43 KABR 281357
MTR8D3
METAR K8D3 281356Z AUTO 00000KT 16/14 A3007 RMK AO1 SLP172 T01610144





000
SAUS43 KABR 281257
MTR8D3
METAR K8D3 281256Z AUTO 15004KT 13/13 A3005 RMK AO1 SLP166 T01330128





000
SAUS43 KABR 281157
MTR8D3
METAR K8D3 281156Z AUTO 13005KT 13/12 A3004 RMK AO1 SLP161 T01280122
10156 20128 53003





000
SAUS43 KABR 281058
MTR8D3
METAR K8D3 281056Z AUTO 14006KT 14/13 A3003 RMK AO1 SLP155 T01390133





000
SAUS43 KABR 280957
MTR8D3
METAR K8D3 280956Z AUTO 15006KT 14/13 A3003 RMK AO1 SLP156 T01390133





000
SAUS43 KABR 280857
MTR8D3
METAR K8D3 280856Z AUTO 13007KT 14/13 A3003 RMK AO1 SLP153 T01440133
50000





000
SAUS43 KABR 280757
MTR8D3
METAR K8D3 280756Z AUTO 13007KT 14/14 A3004 RMK AO1 SLP154 T01440139





000
SAUS43 KABR 280657
MTR8D3
METAR K8D3 280656Z AUTO 13005KT 15/14 A3004 RMK AO1 SLP154 T01500139





000
SAUS43 KABR 280557
MTR8D3
METAR K8D3 280556Z AUTO 14004KT 16/14 A3003 RMK AO1 SLP153 T01560144
10256 20156 402940133 51007





000
SAUS43 KABR 280457
MTR8D3
METAR K8D3 280456Z AUTO 17006KT 18/14 A3002 RMK AO1 SLP150 T01780144





000
SAUS43 KABR 280358
MTR8D3
METAR K8D3 280356Z AUTO 17004KT 17/14 A3002 RMK AO1 SLP151 T01720144





000
SAUS43 KABR 280257
MTR8D3
METAR K8D3 280256Z AUTO 19006KT 18/14 A3001 RMK AO1 SLP150 T01780144
51015





000
SAUS43 KABR 280157
MTR8D3
METAR K8D3 280156Z AUTO 19005KT 19/14 A3000 RMK AO1 SLP147 T01890144





000
SAUS43 KABR 280057
MTR8D3
METAR K8D3 280056Z AUTO 18006KT 22/14 A2998 RMK AO1 SLP141 T02220144





000
SAUS43 KABR 272357
MTR8D3
METAR K8D3 272356Z AUTO 18008KT 25/14 A2996 RMK AO1 SLP133 T02500139
10294 20250 53003





000
SAUS43 KABR 272257
MTR8D3
METAR K8D3 272256Z AUTO 19011KT 28/13 A2995 RMK AO1 SLP128 T02780128





000
SAUS43 KABR 272157
MTR8D3
METAR K8D3 272156Z AUTO 19014KT 28/13 A2995 RMK AO1 SLP127 T02830133





000
SAUS43 KABR 272057
MTR8D3
METAR K8D3 272056Z AUTO 18012G19KT 29/14 A2995 RMK AO1 SLP126
T02890139 56012





000
SAUS43 KABR 271957
MTR8D3
METAR K8D3 271956Z AUTO 19012G22KT 29/13 A2996 RMK AO1 PK WND
17027/1928 SLP128 T02940133





000
SAUS43 KABR 271857
MTR8D3
METAR K8D3 271856Z AUTO 19015G21KT 29/13 A2997 RMK AO1 SLP131
T02890133





000
SAUS43 KABR 271757
MTR8D3
METAR K8D3 271756Z AUTO 18013G22KT 28/13 A2999 RMK AO1 SLP137
T02830133 10283 20139 56004





000
SAUS43 KABR 271657
MTR8D3
METAR K8D3 271656Z AUTO 19016G23KT 27/13 A2999 RMK AO1 SLP139
T02720133





000
SAUS43 KABR 271557
MTR8D3
METAR K8D3 271556Z AUTO 20012G17KT 26/14 A2999 RMK AO1 SLP142
T02560144





000
SAUS43 KABR 271457
MTR8D3
METAR K8D3 271456Z AUTO 16008KT 21/16 A3000 RMK AO1 SLP147 T02110156
51007





000
SAUS43 KABR 271358
MTR8D3
METAR K8D3 271356Z AUTO 17006KT 18/14 A2999 RMK AO1 SLP145 T01830139





000
SAUS43 KABR 271257
MTR8D3
METAR K8D3 271256Z AUTO 13007KT 14/13 A2999 RMK AO1 SLP145 T01390133





000
SAUS43 KABR 271158
MTR8D3
METAR K8D3 271156Z AUTO 14009KT 14/13 A2998 RMK AO1 SLP138 T01440133
10167 20133 53002





000
SAUS43 KABR 271058
MTR8D3
METAR K8D3 271056Z AUTO 15006KT 14/13 A2997 RMK AO1 SLP136 T01390133





    US Dept of Commerce
    National Oceanic and Atmospheric Administration
    National Weather Service
    1325 East West Highway
    Silver Spring, MD 20910
    Page Author: NWS Internet Services Team
Disclaimer
Information Quality
Credits
Glossary
Privacy Policy
Freedom of Information Act (FOIA)
About Us
Career Opportunities